sensor_id;sensor_type;location;lat;lon;timestamp;P1;durP1;ratioP1;P2;durP2;ratioP2
47349;SDS011;33088;51.982;5.872;2022-10-15T00:01:45;22.15;;;17.95;;
47349;SDS011;33088;51.982;5.872;2022-10-15T00:04:10;17.92;;;16.13;;
47349;SDS011;33088;51.982;5.872;2022-10-15T00:06:36;27.92;;;18.45;;
47349;SDS011;33088;51.982;5.872;2022-10-15T00:09:02;19.67;;;16.63;;
47349;SDS011;33088;51.982;5.872;2022-10-15T00:11:28;18.00;;;16.10;;
47349;SDS011;33088;51.982;5.872;2022-10-15T00:13:55;44.88;;;22.35;;
47349;SDS011;33088;51.982;5.872;2022-10-15T00:16:23;19.63;;;17.00;;
47349;SDS011;33088;51.982;5.872;2022-10-15T00:18:51;18.67;;;16.67;;
47349;SDS011;33088;51.982;5.872;2022-10-15T00:21:20;49.00;;;21.52;;
47349;SDS011;33088;51.982;5.872;2022-10-15T00:23:46;18.00;;;16.10;;
47349;SDS011;33088;51.982;5.872;2022-10-15T00:26:14;21.85;;;18.10;;
47349;SDS011;33088;51.982;5.872;2022-10-15T00:28:42;49.78;;;20.27;;
47349;SDS011;33088;51.982;5.872;2022-10-15T00:31:09;43.58;;;22.77;;
47349;SDS011;33088;51.982;5.872;2022-10-15T00:33:37;40.88;;;21.20;;
47349;SDS011;33088;51.982;5.872;2022-10-15T00:36:05;23.65;;;18.17;;
47349;SDS011;33088;51.982;5.872;2022-10-15T00:38:37;24.13;;;17.95;;
47349;SDS011;33088;51.982;5.872;2022-10-15T00:41:03;21.95;;;16.80;;
47349;SDS011;33088;51.982;5.872;2022-10-15T00:43:50;20.55;;;16.55;;
47349;SDS011;33088;51.982;5.872;2022-10-15T00:46:30;25.92;;;18.25;;
47349;SDS011;33088;51.982;5.872;2022-10-15T00:48:58;21.52;;;18.05;;
47349;SDS011;33088;51.982;5.872;2022-10-15T00:51:34;23.17;;;17.67;;
47349;SDS011;33088;51.982;5.872;2022-10-15T00:54:05;23.80;;;18.00;;
47349;SDS011;33088;51.982;5.872;2022-10-15T00:56:31;22.42;;;17.45;;
47349;SDS011;33088;51.982;5.872;2022-10-15T00:58:58;22.33;;;17.55;;
47349;SDS011;33088;51.982;5.872;2022-10-15T01:01:25;23.27;;;17.83;;
47349;SDS011;33088;51.982;5.872;2022-10-15T01:03:53;24.02;;;17.58;;
47349;SDS011;33088;51.982;5.872;2022-10-15T01:06:20;28.95;;;20.50;;
47349;SDS011;33088;51.982;5.872;2022-10-15T01:08:46;29.85;;;20.55;;
47349;SDS011;33088;51.982;5.872;2022-10-15T01:11:23;25.98;;;20.17;;
47349;SDS011;33088;51.982;5.872;2022-10-15T01:16:31;35.63;;;22.33;;
47349;SDS011;33088;51.982;5.872;2022-10-15T01:19:09;28.10;;;19.88;;
47349;SDS011;33088;51.982;5.872;2022-10-15T01:21:45;30.02;;;20.10;;
47349;SDS011;33088;51.982;5.872;2022-10-15T01:24:41;25.70;;;17.67;;
47349;SDS011;33088;51.982;5.872;2022-10-15T01:29:59;31.23;;;21.15;;
47349;SDS011;33088;51.982;5.872;2022-10-15T01:32:47;30.63;;;21.02;;
47349;SDS011;33088;51.982;5.872;2022-10-15T01:40:52;29.77;;;21.17;;
47349;SDS011;33088;51.982;5.872;2022-10-15T01:44:08;30.63;;;20.00;;
47349;SDS011;33088;51.982;5.872;2022-10-15T01:46:49;26.10;;;20.10;;
47349;SDS011;33088;51.982;5.872;2022-10-15T01:49:21;45.95;;;25.70;;
47349;SDS011;33088;51.982;5.872;2022-10-15T01:51:50;32.80;;;23.13;;
47349;SDS011;33088;51.982;5.872;2022-10-15T01:54:19;40.05;;;25.65;;
47349;SDS011;33088;51.982;5.872;2022-10-15T01:56:50;32.97;;;21.90;;
47349;SDS011;33088;51.982;5.872;2022-10-15T01:59:21;38.83;;;24.20;;
47349;SDS011;33088;51.982;5.872;2022-10-15T02:01:51;41.22;;;24.20;;
47349;SDS011;33088;51.982;5.872;2022-10-15T02:04:17;37.22;;;24.30;;
47349;SDS011;33088;51.982;5.872;2022-10-15T02:06:46;40.05;;;25.58;;
47349;SDS011;33088;51.982;5.872;2022-10-15T02:09:18;37.90;;;24.98;;
47349;SDS011;33088;51.982;5.872;2022-10-15T02:12:09;33.47;;;24.60;;
47349;SDS011;33088;51.982;5.872;2022-10-15T02:15:33;40.55;;;25.92;;
47349;SDS011;33088;51.982;5.872;2022-10-15T02:17:39;54.00;;;30.95;;
47349;SDS011;33088;51.982;5.872;2022-10-15T02:20:19;44.40;;;28.13;;
47349;SDS011;33088;51.982;5.872;2022-10-15T02:22:55;42.10;;;27.40;;
47349;SDS011;33088;51.982;5.872;2022-10-15T02:25:31;49.58;;;27.25;;
47349;SDS011;33088;51.982;5.872;2022-10-15T02:27:59;39.13;;;24.75;;
47349;SDS011;33088;51.982;5.872;2022-10-15T02:30:27;34.45;;;24.60;;
47349;SDS011;33088;51.982;5.872;2022-10-15T02:32:55;57.38;;;29.83;;
47349;SDS011;33088;51.982;5.872;2022-10-15T02:35:23;49.30;;;28.63;;
47349;SDS011;33088;51.982;5.872;2022-10-15T02:37:52;54.97;;;28.10;;
47349;SDS011;33088;51.982;5.872;2022-10-15T02:40:23;59.40;;;31.23;;
47349;SDS011;33088;51.982;5.872;2022-10-15T02:42:52;56.58;;;30.92;;
47349;SDS011;33088;51.982;5.872;2022-10-15T02:45:18;73.95;;;35.80;;
47349;SDS011;33088;51.982;5.872;2022-10-15T02:47:44;43.80;;;27.73;;
47349;SDS011;33088;51.982;5.872;2022-10-15T02:50:10;99.60;;;38.33;;
47349;SDS011;33088;51.982;5.872;2022-10-15T02:52:37;46.08;;;29.25;;
47349;SDS011;33088;51.982;5.872;2022-10-15T02:55:03;51.08;;;30.48;;
47349;SDS011;33088;51.982;5.872;2022-10-15T02:57:29;65.75;;;34.15;;
47349;SDS011;33088;51.982;5.872;2022-10-15T02:59:55;68.10;;;35.47;;
47349;SDS011;33088;51.982;5.872;2022-10-15T03:02:21;58.97;;;31.73;;
47349;SDS011;33088;51.982;5.872;2022-10-15T03:04:47;69.28;;;34.05;;
47349;SDS011;33088;51.982;5.872;2022-10-15T03:07:13;71.68;;;33.55;;
47349;SDS011;33088;51.982;5.872;2022-10-15T03:09:39;78.70;;;39.70;;
47349;SDS011;33088;51.982;5.872;2022-10-15T03:12:05;81.13;;;39.40;;
47349;SDS011;33088;51.982;5.872;2022-10-15T03:14:31;81.03;;;39.92;;
47349;SDS011;33088;51.982;5.872;2022-10-15T03:17:00;56.90;;;32.38;;
47349;SDS011;33088;51.982;5.872;2022-10-15T03:19:26;75.57;;;37.00;;
47349;SDS011;33088;51.982;5.872;2022-10-15T03:21:52;54.83;;;34.47;;
47349;SDS011;33088;51.982;5.872;2022-10-15T03:24:18;63.97;;;35.33;;
47349;SDS011;33088;51.982;5.872;2022-10-15T03:26:44;91.88;;;40.60;;
47349;SDS011;33088;51.982;5.872;2022-10-15T03:29:10;59.25;;;32.83;;
47349;SDS011;33088;51.982;5.872;2022-10-15T03:31:55;53.38;;;30.90;;
47349;SDS011;33088;51.982;5.872;2022-10-15T03:34:20;55.22;;;33.63;;
47349;SDS011;33088;51.982;5.872;2022-10-15T03:36:47;58.72;;;32.33;;
47349;SDS011;33088;51.982;5.872;2022-10-15T03:39:13;93.38;;;42.28;;
47349;SDS011;33088;51.982;5.872;2022-10-15T03:41:39;50.63;;;31.50;;
47349;SDS011;33088;51.982;5.872;2022-10-15T03:44:06;59.47;;;33.53;;
47349;SDS011;33088;51.982;5.872;2022-10-15T03:46:34;71.38;;;35.45;;
47349;SDS011;33088;51.982;5.872;2022-10-15T03:49:00;56.28;;;32.33;;
47349;SDS011;33088;51.982;5.872;2022-10-15T03:51:26;55.20;;;31.65;;
47349;SDS011;33088;51.982;5.872;2022-10-15T03:53:58;100.88;;;41.40;;
47349;SDS011;33088;51.982;5.872;2022-10-15T03:56:23;50.17;;;30.88;;
47349;SDS011;33088;51.982;5.872;2022-10-15T03:58:49;51.22;;;30.98;;
47349;SDS011;33088;51.982;5.872;2022-10-15T04:01:16;62.35;;;34.55;;
47349;SDS011;33088;51.982;5.872;2022-10-15T04:03:42;54.92;;;31.75;;
47349;SDS011;33088;51.982;5.872;2022-10-15T04:06:08;49.63;;;30.30;;
47349;SDS011;33088;51.982;5.872;2022-10-15T04:08:35;49.97;;;29.55;;
47349;SDS011;33088;51.982;5.872;2022-10-15T04:11:15;50.53;;;28.73;;
47349;SDS011;33088;51.982;5.872;2022-10-15T04:13:42;39.42;;;28.17;;
47349;SDS011;33088;51.982;5.872;2022-10-15T04:16:08;48.80;;;29.23;;
47349;SDS011;33088;51.982;5.872;2022-10-15T04:18:34;53.88;;;30.30;;
47349;SDS011;33088;51.982;5.872;2022-10-15T04:21:00;46.67;;;28.38;;
47349;SDS011;33088;51.982;5.872;2022-10-15T04:23:26;64.60;;;32.33;;
47349;SDS011;33088;51.982;5.872;2022-10-15T04:26:11;45.38;;;29.48;;
47349;SDS011;33088;51.982;5.872;2022-10-15T04:28:37;95.78;;;37.72;;
47349;SDS011;33088;51.982;5.872;2022-10-15T04:31:03;41.15;;;27.40;;
47349;SDS011;33088;51.982;5.872;2022-10-15T04:33:29;51.78;;;28.98;;
47349;SDS011;33088;51.982;5.872;2022-10-15T04:36:01;45.55;;;27.52;;
47349;SDS011;33088;51.982;5.872;2022-10-15T04:38:44;40.50;;;27.02;;
47349;SDS011;33088;51.982;5.872;2022-10-15T04:41:10;42.97;;;29.05;;
47349;SDS011;33088;51.982;5.872;2022-10-15T04:44:03;55.05;;;33.72;;
47349;SDS011;33088;51.982;5.872;2022-10-15T04:46:30;66.90;;;35.63;;
47349;SDS011;33088;51.982;5.872;2022-10-15T04:49:00;73.22;;;36.10;;
47349;SDS011;33088;51.982;5.872;2022-10-15T04:51:25;89.57;;;39.17;;
47349;SDS011;33088;51.982;5.872;2022-10-15T04:54:17;49.75;;;31.30;;
47349;SDS011;33088;51.982;5.872;2022-10-15T04:56:55;65.05;;;34.17;;
47349;SDS011;33088;51.982;5.872;2022-10-15T04:59:20;53.60;;;31.48;;
47349;SDS011;33088;51.982;5.872;2022-10-15T05:02:15;72.88;;;34.47;;
47349;SDS011;33088;51.982;5.872;2022-10-15T05:04:42;50.13;;;30.25;;
47349;SDS011;33088;51.982;5.872;2022-10-15T05:07:08;44.55;;;30.73;;
47349;SDS011;33088;51.982;5.872;2022-10-15T05:09:34;65.43;;;35.67;;
47349;SDS011;33088;51.982;5.872;2022-10-15T05:12:00;43.20;;;27.63;;
47349;SDS011;33088;51.982;5.872;2022-10-15T05:14:27;38.70;;;26.30;;
47349;SDS011;33088;51.982;5.872;2022-10-15T05:17:12;39.35;;;27.52;;
47349;SDS011;33088;51.982;5.872;2022-10-15T05:19:39;43.10;;;27.38;;
47349;SDS011;33088;51.982;5.872;2022-10-15T05:22:09;41.22;;;27.05;;
47349;SDS011;33088;51.982;5.872;2022-10-15T05:24:41;42.67;;;29.60;;
47349;SDS011;33088;51.982;5.872;2022-10-15T05:27:45;44.85;;;27.40;;
47349;SDS011;33088;51.982;5.872;2022-10-15T05:30:11;40.15;;;29.00;;
47349;SDS011;33088;51.982;5.872;2022-10-15T05:32:44;52.97;;;30.70;;
47349;SDS011;33088;51.982;5.872;2022-10-15T05:35:14;63.10;;;35.55;;
47349;SDS011;33088;51.982;5.872;2022-10-15T05:37:59;46.05;;;30.38;;
47349;SDS011;33088;51.982;5.872;2022-10-15T05:40:28;41.72;;;28.00;;
47349;SDS011;33088;51.982;5.872;2022-10-15T05:43:03;39.85;;;27.50;;
47349;SDS011;33088;51.982;5.872;2022-10-15T05:45:29;50.97;;;32.30;;
47349;SDS011;33088;51.982;5.872;2022-10-15T05:48:00;44.15;;;29.08;;
47349;SDS011;33088;51.982;5.872;2022-10-15T05:50:26;51.92;;;33.08;;
47349;SDS011;33088;51.982;5.872;2022-10-15T05:52:54;44.42;;;31.02;;
47349;SDS011;33088;51.982;5.872;2022-10-15T05:57:52;46.95;;;29.00;;
47349;SDS011;33088;51.982;5.872;2022-10-15T06:00:20;48.13;;;30.13;;
47349;SDS011;33088;51.982;5.872;2022-10-15T06:02:50;47.05;;;32.50;;
47349;SDS011;33088;51.982;5.872;2022-10-15T06:05:16;43.72;;;30.40;;
47349;SDS011;33088;51.982;5.872;2022-10-15T06:07:42;46.13;;;32.90;;
47349;SDS011;33088;51.982;5.872;2022-10-15T06:10:07;48.83;;;31.15;;
47349;SDS011;33088;51.982;5.872;2022-10-15T06:12:33;66.25;;;35.92;;
47349;SDS011;33088;51.982;5.872;2022-10-15T06:14:59;48.67;;;31.95;;
47349;SDS011;33088;51.982;5.872;2022-10-15T06:17:25;95.15;;;43.33;;
47349;SDS011;33088;51.982;5.872;2022-10-15T06:19:50;93.70;;;41.97;;
47349;SDS011;33088;51.982;5.872;2022-10-15T06:22:16;86.75;;;40.63;;
47349;SDS011;33088;51.982;5.872;2022-10-15T06:24:42;55.60;;;35.50;;
47349;SDS011;33088;51.982;5.872;2022-10-15T06:27:20;53.25;;;34.45;;
47349;SDS011;33088;51.982;5.872;2022-10-15T06:29:46;52.45;;;34.33;;
47349;SDS011;33088;51.982;5.872;2022-10-15T06:32:12;96.20;;;42.85;;
47349;SDS011;33088;51.982;5.872;2022-10-15T06:34:41;58.83;;;35.97;;
47349;SDS011;33088;51.982;5.872;2022-10-15T06:37:07;82.03;;;38.67;;
47349;SDS011;33088;51.982;5.872;2022-10-15T06:39:33;54.67;;;34.75;;
47349;SDS011;33088;51.982;5.872;2022-10-15T06:41:58;69.82;;;35.97;;
47349;SDS011;33088;51.982;5.872;2022-10-15T06:44:36;102.93;;;40.28;;
47349;SDS011;33088;51.982;5.872;2022-10-15T06:47:02;85.60;;;39.40;;
47349;SDS011;33088;51.982;5.872;2022-10-15T06:49:28;65.05;;;35.10;;
47349;SDS011;33088;51.982;5.872;2022-10-15T06:51:54;54.50;;;33.50;;
47349;SDS011;33088;51.982;5.872;2022-10-15T06:54:19;61.90;;;32.03;;
47349;SDS011;33088;51.982;5.872;2022-10-15T06:56:45;73.03;;;35.92;;
47349;SDS011;33088;51.982;5.872;2022-10-15T06:59:11;63.00;;;33.65;;
47349;SDS011;33088;51.982;5.872;2022-10-15T07:01:36;109.28;;;40.85;;
47349;SDS011;33088;51.982;5.872;2022-10-15T07:04:02;50.33;;;31.48;;
47349;SDS011;33088;51.982;5.872;2022-10-15T07:06:28;54.90;;;30.88;;
47349;SDS011;33088;51.982;5.872;2022-10-15T07:08:53;47.90;;;30.85;;
47349;SDS011;33088;51.982;5.872;2022-10-15T07:11:19;51.80;;;32.25;;
47349;SDS011;33088;51.982;5.872;2022-10-15T07:13:45;52.90;;;31.05;;
47349;SDS011;33088;51.982;5.872;2022-10-15T07:16:11;63.15;;;33.13;;
47349;SDS011;33088;51.982;5.872;2022-10-15T07:18:37;46.95;;;29.02;;
47349;SDS011;33088;51.982;5.872;2022-10-15T07:21:04;103.75;;;39.00;;
47349;SDS011;33088;51.982;5.872;2022-10-15T07:23:31;54.72;;;30.80;;
47349;SDS011;33088;51.982;5.872;2022-10-15T07:25:57;39.00;;;26.45;;
47349;SDS011;33088;51.982;5.872;2022-10-15T07:28:24;51.03;;;28.73;;
47349;SDS011;33088;51.982;5.872;2022-10-15T07:30:50;49.53;;;28.45;;
47349;SDS011;33088;51.982;5.872;2022-10-15T07:33:17;69.68;;;30.35;;
47349;SDS011;33088;51.982;5.872;2022-10-15T07:35:52;63.08;;;31.65;;
47349;SDS011;33088;51.982;5.872;2022-10-15T07:38:18;53.92;;;29.42;;
47349;SDS011;33088;51.982;5.872;2022-10-15T07:40:44;41.70;;;25.13;;
47349;SDS011;33088;51.982;5.872;2022-10-15T07:43:09;55.53;;;28.65;;
47349;SDS011;33088;51.982;5.872;2022-10-15T07:45:35;49.50;;;27.80;;
47349;SDS011;33088;51.982;5.872;2022-10-15T07:48:01;61.63;;;29.40;;
47349;SDS011;33088;51.982;5.872;2022-10-15T07:50:26;62.80;;;30.02;;
47349;SDS011;33088;51.982;5.872;2022-10-15T07:52:57;97.53;;;34.15;;
47349;SDS011;33088;51.982;5.872;2022-10-15T07:55:23;59.05;;;28.70;;
47349;SDS011;33088;51.982;5.872;2022-10-15T07:57:49;55.22;;;31.55;;
47349;SDS011;33088;51.982;5.872;2022-10-15T08:00:15;54.20;;;30.27;;
47349;SDS011;33088;51.982;5.872;2022-10-15T08:02:41;64.80;;;32.03;;
47349;SDS011;33088;51.982;5.872;2022-10-15T08:05:07;83.03;;;33.58;;
47349;SDS011;33088;51.982;5.872;2022-10-15T08:07:32;65.45;;;31.45;;
47349;SDS011;33088;51.982;5.872;2022-10-15T08:09:59;60.88;;;31.85;;
47349;SDS011;33088;51.982;5.872;2022-10-15T08:12:25;44.53;;;28.50;;
47349;SDS011;33088;51.982;5.872;2022-10-15T08:14:51;51.90;;;30.45;;
47349;SDS011;33088;51.982;5.872;2022-10-15T08:17:18;61.90;;;32.47;;
47349;SDS011;33088;51.982;5.872;2022-10-15T08:19:44;51.45;;;31.13;;
47349;SDS011;33088;51.982;5.872;2022-10-15T08:22:09;54.47;;;29.75;;
47349;SDS011;33088;51.982;5.872;2022-10-15T08:24:36;39.92;;;26.67;;
47349;SDS011;33088;51.982;5.872;2022-10-15T08:27:02;50.03;;;27.73;;
47349;SDS011;33088;51.982;5.872;2022-10-15T08:29:28;56.72;;;29.48;;
47349;SDS011;33088;51.982;5.872;2022-10-15T08:31:53;39.17;;;27.33;;
47349;SDS011;33088;51.982;5.872;2022-10-15T08:34:22;46.90;;;28.58;;
47349;SDS011;33088;51.982;5.872;2022-10-15T08:36:47;39.33;;;25.35;;
47349;SDS011;33088;51.982;5.872;2022-10-15T08:39:13;37.28;;;24.73;;
47349;SDS011;33088;51.982;5.872;2022-10-15T08:44:24;36.70;;;23.17;;
47349;SDS011;33088;51.982;5.872;2022-10-15T08:49:42;32.20;;;22.83;;
47349;SDS011;33088;51.982;5.872;2022-10-15T08:55:14;27.85;;;18.70;;
47349;SDS011;33088;51.982;5.872;2022-10-15T08:57:48;33.08;;;21.63;;
47349;SDS011;33088;51.982;5.872;2022-10-15T09:00:36;31.88;;;19.73;;
47349;SDS011;33088;51.982;5.872;2022-10-15T09:08:30;31.13;;;19.73;;
47349;SDS011;33088;51.982;5.872;2022-10-15T09:11:08;29.33;;;19.35;;
47349;SDS011;33088;51.982;5.872;2022-10-15T09:13:40;31.05;;;20.65;;
47349;SDS011;33088;51.982;5.872;2022-10-15T09:16:18;27.77;;;19.92;;
47349;SDS011;33088;51.982;5.872;2022-10-15T09:18:47;25.23;;;19.15;;
47349;SDS011;33088;51.982;5.872;2022-10-15T09:21:18;32.05;;;19.80;;
47349;SDS011;33088;51.982;5.872;2022-10-15T09:23:49;26.73;;;19.88;;
47349;SDS011;33088;51.982;5.872;2022-10-15T09:29:14;20.63;;;15.55;;
47349;SDS011;33088;51.982;5.872;2022-10-15T09:42:54;20.15;;;12.75;;
47349;SDS011;33088;51.982;5.872;2022-10-15T09:45:22;19.67;;;13.15;;
47349;SDS011;33088;51.982;5.872;2022-10-15T09:47:48;21.65;;;13.82;;
47349;SDS011;33088;51.982;5.872;2022-10-15T09:50:14;22.92;;;13.75;;
47349;SDS011;33088;51.982;5.872;2022-10-15T09:52:59;19.55;;;13.38;;
47349;SDS011;33088;51.982;5.872;2022-10-15T09:58:03;20.17;;;12.73;;
47349;SDS011;33088;51.982;5.872;2022-10-15T10:03:27;21.70;;;11.90;;
47349;SDS011;33088;51.982;5.872;2022-10-15T10:05:58;17.42;;;10.80;;
47349;SDS011;33088;51.982;5.872;2022-10-15T10:10:56;20.02;;;13.13;;
47349;SDS011;33088;51.982;5.872;2022-10-15T10:13:27;17.17;;;12.05;;
47349;SDS011;33088;51.982;5.872;2022-10-15T10:16:00;21.42;;;12.77;;
47349;SDS011;33088;51.982;5.872;2022-10-15T10:18:29;16.70;;;12.00;;
47349;SDS011;33088;51.982;5.872;2022-10-15T10:20:57;22.10;;;12.77;;
47349;SDS011;33088;51.982;5.872;2022-10-15T10:23:28;20.58;;;13.13;;
47349;SDS011;33088;51.982;5.872;2022-10-15T10:31:17;20.08;;;12.43;;
47349;SDS011;33088;51.982;5.872;2022-10-15T10:33:55;15.30;;;10.48;;
47349;SDS011;33088;51.982;5.872;2022-10-15T10:36:26;24.27;;;13.18;;
47349;SDS011;33088;51.982;5.872;2022-10-15T10:45:05;21.10;;;12.70;;
47349;SDS011;33088;51.982;5.872;2022-10-15T10:47:12;19.13;;;12.40;;
47349;SDS011;33088;51.982;5.872;2022-10-15T10:49:41;22.60;;;12.88;;
47349;SDS011;33088;51.982;5.872;2022-10-15T10:57:36;22.05;;;12.95;;
47349;SDS011;33088;51.982;5.872;2022-10-15T11:00:05;23.17;;;13.77;;
47349;SDS011;33088;51.982;5.872;2022-10-15T11:02:32;34.42;;;16.60;;
47349;SDS011;33088;51.982;5.872;2022-10-15T11:05:03;20.63;;;13.20;;
47349;SDS011;33088;51.982;5.872;2022-10-15T11:07:32;23.98;;;14.98;;
47349;SDS011;33088;51.982;5.872;2022-10-15T11:12:50;29.90;;;16.23;;
47349;SDS011;33088;51.982;5.872;2022-10-15T11:15:35;34.20;;;15.68;;
47349;SDS011;33088;51.982;5.872;2022-10-15T11:21:33;18.35;;;11.07;;
47349;SDS011;33088;51.982;5.872;2022-10-15T11:24:15;19.67;;;12.68;;
47349;SDS011;33088;51.982;5.872;2022-10-15T11:32:50;22.63;;;12.85;;
47349;SDS011;33088;51.982;5.872;2022-10-15T11:35:41;35.60;;;13.57;;
47349;SDS011;33088;51.982;5.872;2022-10-15T11:55:14;13.70;;;8.95;;
47349;SDS011;33088;51.982;5.872;2022-10-15T11:57:50;13.45;;;9.07;;
47349;SDS011;33088;51.982;5.872;2022-10-15T12:00:33;12.85;;;8.95;;
47349;SDS011;33088;51.982;5.872;2022-10-15T12:03:08;15.98;;;9.05;;
47349;SDS011;33088;51.982;5.872;2022-10-15T12:05:51;12.57;;;7.93;;
47349;SDS011;33088;51.982;5.872;2022-10-15T12:08:20;13.32;;;8.60;;
47349;SDS011;33088;51.982;5.872;2022-10-15T12:10:56;14.15;;;8.95;;
47349;SDS011;33088;51.982;5.872;2022-10-15T12:13:47;13.70;;;8.40;;
47349;SDS011;33088;51.982;5.872;2022-10-15T12:19:03;11.90;;;8.05;;
47349;SDS011;33088;51.982;5.872;2022-10-15T12:24:52;12.50;;;8.20;;
47349;SDS011;33088;51.982;5.872;2022-10-15T12:32:29;11.15;;;7.85;;
47349;SDS011;33088;51.982;5.872;2022-10-15T12:35:01;11.40;;;7.72;;
47349;SDS011;33088;51.982;5.872;2022-10-15T12:37:31;7.72;;;6.95;;
47349;SDS011;33088;51.982;5.872;2022-10-15T12:40:22;16.35;;;8.32;;
47349;SDS011;33088;51.982;5.872;2022-10-15T12:43:02;8.90;;;7.30;;
47349;SDS011;33088;51.982;5.872;2022-10-15T12:45:39;9.00;;;7.63;;
47349;SDS011;33088;51.982;5.872;2022-10-15T12:50:44;8.80;;;7.20;;
47349;SDS011;33088;51.982;5.872;2022-10-15T12:58:42;11.23;;;6.95;;
47349;SDS011;33088;51.982;5.872;2022-10-15T13:14:24;10.02;;;6.82;;
47349;SDS011;33088;51.982;5.872;2022-10-15T13:16:53;6.28;;;5.72;;
47349;SDS011;33088;51.982;5.872;2022-10-15T13:19:21;5.28;;;4.85;;
47349;SDS011;33088;51.982;5.872;2022-10-15T13:21:56;5.38;;;4.88;;
47349;SDS011;33088;51.982;5.872;2022-10-15T13:24:28;4.73;;;4.33;;
47349;SDS011;33088;51.982;5.872;2022-10-15T13:27:02;6.18;;;4.68;;
47349;SDS011;33088;51.982;5.872;2022-10-15T13:29:51;5.00;;;4.57;;
47349;SDS011;33088;51.982;5.872;2022-10-15T13:32:22;7.88;;;4.68;;
47349;SDS011;33088;51.982;5.872;2022-10-15T13:34:49;5.72;;;5.20;;
47349;SDS011;33088;51.982;5.872;2022-10-15T13:37:28;6.03;;;5.53;;
47349;SDS011;33088;51.982;5.872;2022-10-15T13:39:56;5.88;;;5.05;;
47349;SDS011;33088;51.982;5.872;2022-10-15T13:42:24;7.45;;;6.03;;
47349;SDS011;33088;51.982;5.872;2022-10-15T13:45:01;7.78;;;5.70;;
47349;SDS011;33088;51.982;5.872;2022-10-15T13:47:35;6.47;;;5.82;;
47349;SDS011;33088;51.982;5.872;2022-10-15T13:52:52;7.05;;;6.45;;
47349;SDS011;33088;51.982;5.872;2022-10-15T13:55:25;7.60;;;6.80;;
47349;SDS011;33088;51.982;5.872;2022-10-15T13:57:57;7.57;;;6.88;;
47349;SDS011;33088;51.982;5.872;2022-10-15T14:00:30;7.40;;;6.80;;
47349;SDS011;33088;51.982;5.872;2022-10-15T14:05:42;9.55;;;7.75;;
47349;SDS011;33088;51.982;5.872;2022-10-15T14:08:31;8.85;;;7.68;;
47349;SDS011;33088;51.982;5.872;2022-10-15T14:10:58;7.82;;;7.05;;
47349;SDS011;33088;51.982;5.872;2022-10-15T14:13:24;9.45;;;7.65;;
47349;SDS011;33088;51.982;5.872;2022-10-15T14:18:37;7.95;;;7.22;;
47349;SDS011;33088;51.982;5.872;2022-10-15T14:21:10;8.57;;;7.68;;
47349;SDS011;33088;51.982;5.872;2022-10-15T14:23:38;11.43;;;8.98;;
47349;SDS011;33088;51.982;5.872;2022-10-15T14:26:08;10.10;;;8.95;;
47349;SDS011;33088;51.982;5.872;2022-10-15T14:28:35;9.85;;;8.68;;
47349;SDS011;33088;51.982;5.872;2022-10-15T14:31:02;8.20;;;7.28;;
47349;SDS011;33088;51.982;5.872;2022-10-15T14:38:48;8.65;;;7.20;;
47349;SDS011;33088;51.982;5.872;2022-10-15T14:41:28;7.63;;;6.45;;
47349;SDS011;33088;51.982;5.872;2022-10-15T14:46:36;7.18;;;6.47;;
47349;SDS011;33088;51.982;5.872;2022-10-15T14:49:14;8.15;;;7.20;;
47349;SDS011;33088;51.982;5.872;2022-10-15T14:51:43;7.82;;;7.10;;
47349;SDS011;33088;51.982;5.872;2022-10-15T14:54:17;7.35;;;6.22;;
47349;SDS011;33088;51.982;5.872;2022-10-15T14:56:47;10.85;;;7.13;;
47349;SDS011;33088;51.982;5.872;2022-10-15T14:59:17;8.07;;;7.28;;
47349;SDS011;33088;51.982;5.872;2022-10-15T15:01:55;6.82;;;6.18;;
47349;SDS011;33088;51.982;5.872;2022-10-15T15:07:05;7.05;;;6.05;;
47349;SDS011;33088;51.982;5.872;2022-10-15T15:09:38;8.63;;;7.18;;
47349;SDS011;33088;51.982;5.872;2022-10-15T15:12:07;8.25;;;6.85;;
47349;SDS011;33088;51.982;5.872;2022-10-15T15:14:39;7.40;;;6.47;;
47349;SDS011;33088;51.982;5.872;2022-10-15T15:17:05;6.22;;;5.63;;
47349;SDS011;33088;51.982;5.872;2022-10-15T15:19:30;6.22;;;5.63;;
47349;SDS011;33088;51.982;5.872;2022-10-15T15:21:56;6.53;;;5.32;;
47349;SDS011;33088;51.982;5.872;2022-10-15T15:24:22;7.18;;;5.45;;
47349;SDS011;33088;51.982;5.872;2022-10-15T15:26:47;6.60;;;5.82;;
47349;SDS011;33088;51.982;5.872;2022-10-15T15:29:13;7.07;;;5.13;;
47349;SDS011;33088;51.982;5.872;2022-10-15T15:31:39;10.98;;;5.30;;
47349;SDS011;33088;51.982;5.872;2022-10-15T15:34:05;4.82;;;3.88;;
47349;SDS011;33088;51.982;5.872;2022-10-15T15:36:31;4.20;;;3.80;;
47349;SDS011;33088;51.982;5.872;2022-10-15T15:38:56;4.05;;;3.20;;
47349;SDS011;33088;51.982;5.872;2022-10-15T15:41:23;5.93;;;3.30;;
47349;SDS011;33088;51.982;5.872;2022-10-15T15:43:50;5.50;;;3.03;;
47349;SDS011;33088;51.982;5.872;2022-10-15T15:46:16;6.57;;;3.45;;
47349;SDS011;33088;51.982;5.872;2022-10-15T15:48:42;5.63;;;3.10;;
47349;SDS011;33088;51.982;5.872;2022-10-15T15:51:21;3.67;;;3.00;;
47349;SDS011;33088;51.982;5.872;2022-10-15T15:53:49;2.73;;;2.53;;
47349;SDS011;33088;51.982;5.872;2022-10-15T15:56:15;3.40;;;3.10;;
47349;SDS011;33088;51.982;5.872;2022-10-15T15:58:41;6.00;;;2.72;;
47349;SDS011;33088;51.982;5.872;2022-10-15T16:01:07;5.32;;;3.13;;
47349;SDS011;33088;51.982;5.872;2022-10-15T16:03:33;4.55;;;3.42;;
47349;SDS011;33088;51.982;5.872;2022-10-15T16:05:58;5.20;;;2.90;;
47349;SDS011;33088;51.982;5.872;2022-10-15T16:08:24;3.63;;;3.22;;
47349;SDS011;33088;51.982;5.872;2022-10-15T16:10:50;3.85;;;2.85;;
47349;SDS011;33088;51.982;5.872;2022-10-15T16:13:15;3.78;;;3.20;;
47349;SDS011;33088;51.982;5.872;2022-10-15T16:15:41;3.42;;;3.13;;
47349;SDS011;33088;51.982;5.872;2022-10-15T16:18:07;3.40;;;3.10;;
47349;SDS011;33088;51.982;5.872;2022-10-15T16:20:33;3.55;;;3.25;;
47349;SDS011;33088;51.982;5.872;2022-10-15T16:23:03;5.15;;;3.28;;
47349;SDS011;33088;51.982;5.872;2022-10-15T16:25:29;4.60;;;3.80;;
47349;SDS011;33088;51.982;5.872;2022-10-15T16:27:54;4.93;;;3.42;;
47349;SDS011;33088;51.982;5.872;2022-10-15T16:30:21;7.85;;;3.75;;
47349;SDS011;33088;51.982;5.872;2022-10-15T16:32:47;4.28;;;3.30;;
47349;SDS011;33088;51.982;5.872;2022-10-15T16:35:12;6.18;;;3.80;;
47349;SDS011;33088;51.982;5.872;2022-10-15T16:37:38;8.48;;;2.95;;
47349;SDS011;33088;51.982;5.872;2022-10-15T16:40:04;3.22;;;2.25;;
47349;SDS011;33088;51.982;5.872;2022-10-15T16:42:30;5.82;;;2.33;;
47349;SDS011;33088;51.982;5.872;2022-10-15T16:44:56;8.05;;;2.05;;
47349;SDS011;33088;51.982;5.872;2022-10-15T16:47:21;4.15;;;1.75;;
47349;SDS011;33088;51.982;5.872;2022-10-15T16:49:47;3.30;;;2.05;;
47349;SDS011;33088;51.982;5.872;2022-10-15T16:52:13;5.55;;;2.05;;
47349;SDS011;33088;51.982;5.872;2022-10-15T16:54:38;3.83;;;2.22;;
47349;SDS011;33088;51.982;5.872;2022-10-15T16:57:04;5.38;;;2.00;;
47349;SDS011;33088;51.982;5.872;2022-10-15T16:59:30;4.40;;;2.47;;
47349;SDS011;33088;51.982;5.872;2022-10-15T17:01:56;25.48;;;10.00;;
47349;SDS011;33088;51.982;5.872;2022-10-15T17:04:22;12.90;;;5.57;;
47349;SDS011;33088;51.982;5.872;2022-10-15T17:06:48;11.10;;;6.03;;
47349;SDS011;33088;51.982;5.872;2022-10-15T17:09:14;12.75;;;6.57;;
47349;SDS011;33088;51.982;5.872;2022-10-15T17:11:40;11.52;;;7.00;;